Garland, TX

6:48 AM CST on March 01, 2015 (GMT -0600)
Addison | Change Station
CLOSE
Current Station
Airport
Location: Dallas Addison,
Elevation: 643 ft
Nearby Weather Stations

Elev 643 ft 32.97 °N, 96.84 °W | Updated 1 hour ago

Fog
Fog
32 °F
Feels Like 28 °F
N
5
Wind Variable Wind from NNW

Today
High -- | Low -- °F
--% Chance of Precip.
Yesterday
High -- | Low -- °F
Precip. -- in
6:54 AM 6:23 PM
Waxing Gibbous, 85% visible
Pressure 30.31 in
Visibility 2.5 miles
Clouds Overcast 500 ft
Windchill 28 °F
Dew Point 30 °F
Humidity 93%
Rainfall 0.00 in
Snow Depth Not available.
UV 0 out of 12
Pollen 6.50 out of 12
Air Quality Not available.
Flu Activity Not available.
METAR KADS 011147Z 34004KT 2 1/2SM BR OVC005 00/M01 A3031

More Conditions Fewer Conditions

Pressure 30.31 in
Visibility 2.5 miles
Clouds Overcast 500 ft
Windchill 28 °F
Dew Point 30 °F
Humidity 93%
Rainfall 0.00 in
Snow Depth Not available.
UV 0 out of 12
Pollen 6.50 out of 12
Air Quality Not available.
Flu Activity Not available.
METAR KADS 011147Z 34004KT 2 1/2SM BR OVC005 00/M01 A3031

More Conditions Fewer Conditions

Nowcast | as of 3:17 am CST on March 1, 2015

Areas of light drizzle and freezing drizzle will continue to occur through daybreak across north and central Texas. The freezing line extended from just northwest of Lampasas...Hillsboro and Greenville to Bonham at 3 am. The freezing line shift very slowly northwest after daybreak. Bridges and overpasses will still have patchy icy spots as far southeast as a Bonham to Waxahachie to Lampasas line. More widespread snow/ice will remain on main Road surfaces along and northwest of a Goldthwaite to Gainesville line through midday Sunday. Check Road reports before traveling across the North Texas.

×

10-Day Weather Forecast

Almanac

Astronomy

Mar. 01, 2015 Rise Set
Actual Time
Civil Twilight
Nautical Twilight
Astronomical Twilight
Moon
Length of Visible Light
Length of Day
Tomorrow will be .
, % of the Moon is Illuminated

Today's Extremes

State Highs State Lows

Community

WunderPhotos

Upload Photos

1,801,371 photos uploaded!

WunderBlogs® & News

Nearby

Air Quality

  Air Quality AQ Index Pollutant
Not available.

Snow Depth

Station Depth Elevation

Earthquake Activity

City Distance Mag. Time & Date
Minimum magnitude displayed is 2.5.

Coastal Water Temperatures

Place Temperature

Nearby Weather Stations